sensor_id;sensor_type;location;lat;lon;timestamp;P1;durP1;ratioP1;P2;durP2;ratioP2
22778;SDS011;11556;51.194;3.800;2023-05-08T00:01:19;120.35;;;44.53;;
22778;SDS011;11556;51.194;3.800;2023-05-08T00:03:44;132.10;;;47.80;;
22778;SDS011;11556;51.194;3.800;2023-05-08T00:06:10;122.15;;;45.25;;
22778;SDS011;11556;51.194;3.800;2023-05-08T00:08:35;125.57;;;45.55;;
22778;SDS011;11556;51.194;3.800;2023-05-08T00:11:01;124.90;;;43.95;;
22778;SDS011;11556;51.194;3.800;2023-05-08T00:13:27;129.35;;;46.53;;
22778;SDS011;11556;51.194;3.800;2023-05-08T00:15:52;132.48;;;48.65;;
22778;SDS011;11556;51.194;3.800;2023-05-08T00:18:18;130.63;;;47.03;;
22778;SDS011;11556;51.194;3.800;2023-05-08T00:20:43;131.55;;;47.58;;
22778;SDS011;11556;51.194;3.800;2023-05-08T00:23:09;134.18;;;47.60;;
22778;SDS011;11556;51.194;3.800;2023-05-08T00:25:35;125.20;;;44.55;;
22778;SDS011;11556;51.194;3.800;2023-05-08T00:28:00;139.10;;;48.65;;
22778;SDS011;11556;51.194;3.800;2023-05-08T00:30:26;140.38;;;47.72;;
22778;SDS011;11556;51.194;3.800;2023-05-08T00:32:52;133.93;;;46.85;;
22778;SDS011;11556;51.194;3.800;2023-05-08T00:35:17;133.88;;;48.40;;
22778;SDS011;11556;51.194;3.800;2023-05-08T00:37:43;127.45;;;46.42;;
22778;SDS011;11556;51.194;3.800;2023-05-08T00:40:09;144.52;;;48.85;;
22778;SDS011;11556;51.194;3.800;2023-05-08T00:42:36;144.60;;;49.22;;
22778;SDS011;11556;51.194;3.800;2023-05-08T00:45:02;143.15;;;48.90;;
22778;SDS011;11556;51.194;3.800;2023-05-08T00:47:29;148.10;;;49.80;;
22778;SDS011;11556;51.194;3.800;2023-05-08T00:49:56;154.02;;;50.50;;
22778;SDS011;11556;51.194;3.800;2023-05-08T00:52:23;161.45;;;54.00;;
22778;SDS011;11556;51.194;3.800;2023-05-08T00:54:50;162.73;;;53.00;;
22778;SDS011;11556;51.194;3.800;2023-05-08T00:57:16;168.27;;;54.40;;
22778;SDS011;11556;51.194;3.800;2023-05-08T00:59:43;161.27;;;53.13;;
22778;SDS011;11556;51.194;3.800;2023-05-08T01:02:11;171.05;;;49.63;;
22778;SDS011;11556;51.194;3.800;2023-05-08T01:04:37;173.13;;;50.63;;
22778;SDS011;11556;51.194;3.800;2023-05-08T01:07:04;170.20;;;49.25;;
22778;SDS011;11556;51.194;3.800;2023-05-08T01:09:30;251.98;;;50.88;;
22778;SDS011;11556;51.194;3.800;2023-05-08T01:12:06;151.07;;;50.92;;
22778;SDS011;11556;51.194;3.800;2023-05-08T01:14:44;257.70;;;50.58;;
22778;SDS011;11556;51.194;3.800;2023-05-08T01:17:38;170.30;;;48.13;;
22778;SDS011;11556;51.194;3.800;2023-05-08T01:20:20;162.13;;;48.72;;
22778;SDS011;11556;51.194;3.800;2023-05-08T01:33:52;195.73;;;42.25;;
22778;SDS011;11556;51.194;3.800;2023-05-08T01:39:25;195.75;;;43.80;;
22778;SDS011;11556;51.194;3.800;2023-05-08T01:42:04;172.27;;;42.92;;
22778;SDS011;11556;51.194;3.800;2023-05-08T01:44:40;255.00;;;43.65;;
22778;SDS011;11556;51.194;3.800;2023-05-08T01:47:11;166.00;;;38.13;;
22778;SDS011;11556;51.194;3.800;2023-05-08T01:49:46;151.07;;;40.63;;
22778;SDS011;11556;51.194;3.800;2023-05-08T01:55:33;142.35;;;39.97;;
22778;SDS011;11556;51.194;3.800;2023-05-08T01:58:00;135.95;;;40.60;;
22778;SDS011;11556;51.194;3.800;2023-05-08T02:00:31;185.98;;;42.38;;
22778;SDS011;11556;51.194;3.800;2023-05-08T02:02:57;182.98;;;41.10;;
22778;SDS011;11556;51.194;3.800;2023-05-08T02:05:24;175.82;;;40.17;;
22778;SDS011;11556;51.194;3.800;2023-05-08T02:07:52;191.18;;;39.97;;
22778;SDS011;11556;51.194;3.800;2023-05-08T02:10:19;226.40;;;41.17;;
22778;SDS011;11556;51.194;3.800;2023-05-08T02:12:48;179.75;;;40.80;;
22778;SDS011;11556;51.194;3.800;2023-05-08T02:15:15;147.98;;;38.40;;
22778;SDS011;11556;51.194;3.800;2023-05-08T02:17:41;175.13;;;38.53;;
22778;SDS011;11556;51.194;3.800;2023-05-08T02:20:10;128.40;;;37.90;;
22778;SDS011;11556;51.194;3.800;2023-05-08T02:22:40;179.43;;;38.05;;
22778;SDS011;11556;51.194;3.800;2023-05-08T02:25:09;159.20;;;39.75;;
22778;SDS011;11556;51.194;3.800;2023-05-08T02:27:38;139.68;;;40.95;;
22778;SDS011;11556;51.194;3.800;2023-05-08T02:30:10;167.60;;;38.42;;
22778;SDS011;11556;51.194;3.800;2023-05-08T02:32:38;143.75;;;38.05;;
22778;SDS011;11556;51.194;3.800;2023-05-08T02:35:07;157.95;;;38.30;;
22778;SDS011;11556;51.194;3.800;2023-05-08T02:37:36;156.02;;;35.78;;
22778;SDS011;11556;51.194;3.800;2023-05-08T02:40:03;212.45;;;36.47;;
22778;SDS011;11556;51.194;3.800;2023-05-08T02:42:32;184.93;;;36.05;;
22778;SDS011;11556;51.194;3.800;2023-05-08T02:44:57;244.77;;;35.60;;
22778;SDS011;11556;51.194;3.800;2023-05-08T02:47:26;124.07;;;34.38;;
22778;SDS011;11556;51.194;3.800;2023-05-08T02:50:08;176.30;;;34.67;;
22778;SDS011;11556;51.194;3.800;2023-05-08T02:52:51;136.88;;;33.22;;
22778;SDS011;11556;51.194;3.800;2023-05-08T03:03:24;115.63;;;31.55;;
22778;SDS011;11556;51.194;3.800;2023-05-08T03:05:55;174.77;;;30.38;;
22778;SDS011;11556;51.194;3.800;2023-05-08T03:08:28;166.88;;;32.28;;
22778;SDS011;11556;51.194;3.800;2023-05-08T03:10:58;127.50;;;28.15;;
22778;SDS011;11556;51.194;3.800;2023-05-08T03:13:28;138.47;;;29.90;;
22778;SDS011;11556;51.194;3.800;2023-05-08T03:15:59;143.70;;;29.33;;
22778;SDS011;11556;51.194;3.800;2023-05-08T03:18:31;171.32;;;29.35;;
22778;SDS011;11556;51.194;3.800;2023-05-08T03:21:00;138.48;;;29.52;;
22778;SDS011;11556;51.194;3.800;2023-05-08T03:23:29;151.48;;;30.40;;
22778;SDS011;11556;51.194;3.800;2023-05-08T03:25:58;141.25;;;30.98;;
22778;SDS011;11556;51.194;3.800;2023-05-08T03:28:25;144.13;;;28.65;;
22778;SDS011;11556;51.194;3.800;2023-05-08T03:30:51;152.13;;;28.70;;
22778;SDS011;11556;51.194;3.800;2023-05-08T03:33:18;152.35;;;27.42;;
22778;SDS011;11556;51.194;3.800;2023-05-08T03:35:45;116.90;;;28.25;;
22778;SDS011;11556;51.194;3.800;2023-05-08T03:38:13;108.28;;;28.75;;
22778;SDS011;11556;51.194;3.800;2023-05-08T03:40:40;107.85;;;28.67;;
22778;SDS011;11556;51.194;3.800;2023-05-08T03:43:09;162.60;;;32.75;;
22778;SDS011;11556;51.194;3.800;2023-05-08T03:45:36;121.30;;;29.92;;
22778;SDS011;11556;51.194;3.800;2023-05-08T03:48:04;221.20;;;29.60;;
22778;SDS011;11556;51.194;3.800;2023-05-08T03:50:31;104.00;;;28.88;;
22778;SDS011;11556;51.194;3.800;2023-05-08T03:52:59;132.43;;;26.90;;
22778;SDS011;11556;51.194;3.800;2023-05-08T03:55:26;97.38;;;22.92;;
22778;SDS011;11556;51.194;3.800;2023-05-08T03:57:55;115.47;;;22.92;;
22778;SDS011;11556;51.194;3.800;2023-05-08T04:06:36;102.15;;;21.63;;
22778;SDS011;11556;51.194;3.800;2023-05-08T04:12:02;93.25;;;20.35;;
22778;SDS011;11556;51.194;3.800;2023-05-08T04:20:05;138.43;;;20.10;;
22778;SDS011;11556;51.194;3.800;2023-05-08T04:22:33;148.13;;;20.23;;
22778;SDS011;11556;51.194;3.800;2023-05-08T04:25:02;103.07;;;18.27;;
22778;SDS011;11556;51.194;3.800;2023-05-08T04:27:30;150.60;;;19.40;;
22778;SDS011;11556;51.194;3.800;2023-05-08T04:29:57;88.80;;;18.88;;
22778;SDS011;11556;51.194;3.800;2023-05-08T04:32:23;75.43;;;18.25;;
22778;SDS011;11556;51.194;3.800;2023-05-08T04:34:49;93.78;;;18.33;;
22778;SDS011;11556;51.194;3.800;2023-05-08T04:37:25;145.80;;;18.85;;
22778;SDS011;11556;51.194;3.800;2023-05-08T04:39:52;80.78;;;18.05;;
22778;SDS011;11556;51.194;3.800;2023-05-08T04:42:18;84.10;;;18.35;;
22778;SDS011;11556;51.194;3.800;2023-05-08T04:44:44;97.40;;;17.05;;
22778;SDS011;11556;51.194;3.800;2023-05-08T04:47:11;92.80;;;16.25;;
22778;SDS011;11556;51.194;3.800;2023-05-08T04:49:37;94.03;;;16.48;;
22778;SDS011;11556;51.194;3.800;2023-05-08T04:52:03;74.10;;;17.08;;
22778;SDS011;11556;51.194;3.800;2023-05-08T04:54:30;76.22;;;17.80;;
22778;SDS011;11556;51.194;3.800;2023-05-08T04:56:56;83.75;;;16.45;;
22778;SDS011;11556;51.194;3.800;2023-05-08T04:59:22;82.05;;;17.23;;
22778;SDS011;11556;51.194;3.800;2023-05-08T05:01:49;77.53;;;16.63;;
22778;SDS011;11556;51.194;3.800;2023-05-08T05:04:14;114.43;;;16.35;;
22778;SDS011;11556;51.194;3.800;2023-05-08T05:06:40;83.25;;;17.33;;
22778;SDS011;11556;51.194;3.800;2023-05-08T05:09:06;74.70;;;16.98;;
22778;SDS011;11556;51.194;3.800;2023-05-08T05:11:32;68.97;;;16.38;;
22778;SDS011;11556;51.194;3.800;2023-05-08T05:13:58;90.13;;;16.42;;
22778;SDS011;11556;51.194;3.800;2023-05-08T05:16:23;68.07;;;16.23;;
22778;SDS011;11556;51.194;3.800;2023-05-08T05:18:49;76.03;;;18.77;;
22778;SDS011;11556;51.194;3.800;2023-05-08T05:21:15;58.85;;;14.95;;
22778;SDS011;11556;51.194;3.800;2023-05-08T05:23:41;50.53;;;14.05;;
22778;SDS011;11556;51.194;3.800;2023-05-08T05:26:06;56.20;;;16.65;;
22778;SDS011;11556;51.194;3.800;2023-05-08T05:28:32;48.75;;;14.65;;
22778;SDS011;11556;51.194;3.800;2023-05-08T05:30:58;73.82;;;16.80;;
22778;SDS011;11556;51.194;3.800;2023-05-08T05:33:24;58.80;;;16.10;;
22778;SDS011;11556;51.194;3.800;2023-05-08T05:35:50;51.80;;;14.18;;
22778;SDS011;11556;51.194;3.800;2023-05-08T05:38:15;69.13;;;18.30;;
22778;SDS011;11556;51.194;3.800;2023-05-08T05:40:41;63.17;;;18.52;;
22778;SDS011;11556;51.194;3.800;2023-05-08T05:43:07;66.30;;;19.48;;
22778;SDS011;11556;51.194;3.800;2023-05-08T05:45:32;60.65;;;16.80;;
22778;SDS011;11556;51.194;3.800;2023-05-08T05:47:58;61.33;;;15.55;;
22778;SDS011;11556;51.194;3.800;2023-05-08T05:50:24;57.75;;;14.30;;
22778;SDS011;11556;51.194;3.800;2023-05-08T05:52:50;58.78;;;14.15;;
22778;SDS011;11556;51.194;3.800;2023-05-08T05:55:16;70.40;;;15.27;;
22778;SDS011;11556;51.194;3.800;2023-05-08T05:57:41;59.58;;;14.55;;
22778;SDS011;11556;51.194;3.800;2023-05-08T06:00:07;53.53;;;14.55;;
22778;SDS011;11556;51.194;3.800;2023-05-08T06:02:34;52.75;;;14.35;;
22778;SDS011;11556;51.194;3.800;2023-05-08T06:05:00;57.67;;;15.45;;
22778;SDS011;11556;51.194;3.800;2023-05-08T06:07:26;57.88;;;14.98;;
22778;SDS011;11556;51.194;3.800;2023-05-08T06:09:52;58.13;;;16.02;;
22778;SDS011;11556;51.194;3.800;2023-05-08T06:12:18;52.67;;;14.80;;
22778;SDS011;11556;51.194;3.800;2023-05-08T06:14:44;45.42;;;14.98;;
22778;SDS011;11556;51.194;3.800;2023-05-08T06:17:10;50.60;;;14.85;;
22778;SDS011;11556;51.194;3.800;2023-05-08T06:19:35;57.45;;;17.30;;
22778;SDS011;11556;51.194;3.800;2023-05-08T06:22:01;55.92;;;16.83;;
22778;SDS011;11556;51.194;3.800;2023-05-08T06:24:27;56.97;;;16.25;;
22778;SDS011;11556;51.194;3.800;2023-05-08T06:26:53;51.67;;;16.75;;
22778;SDS011;11556;51.194;3.800;2023-05-08T06:29:18;54.92;;;16.33;;
22778;SDS011;11556;51.194;3.800;2023-05-08T06:31:44;43.50;;;15.55;;
22778;SDS011;11556;51.194;3.800;2023-05-08T06:34:10;48.33;;;16.63;;
22778;SDS011;11556;51.194;3.800;2023-05-08T06:36:35;50.47;;;15.85;;
22778;SDS011;11556;51.194;3.800;2023-05-08T06:39:04;55.53;;;21.13;;
22778;SDS011;11556;51.194;3.800;2023-05-08T06:41:30;44.45;;;16.90;;
22778;SDS011;11556;51.194;3.800;2023-05-08T06:43:56;42.83;;;16.05;;
22778;SDS011;11556;51.194;3.800;2023-05-08T06:46:22;41.67;;;16.92;;
22778;SDS011;11556;51.194;3.800;2023-05-08T06:48:47;38.00;;;15.70;;
22778;SDS011;11556;51.194;3.800;2023-05-08T06:51:13;45.97;;;15.65;;
22778;SDS011;11556;51.194;3.800;2023-05-08T06:53:38;42.95;;;16.08;;
22778;SDS011;11556;51.194;3.800;2023-05-08T06:56:04;42.17;;;15.70;;
22778;SDS011;11556;51.194;3.800;2023-05-08T06:58:31;44.53;;;17.13;;
22778;SDS011;11556;51.194;3.800;2023-05-08T07:00:59;47.80;;;16.98;;
22778;SDS011;11556;51.194;3.800;2023-05-08T07:03:28;50.35;;;18.77;;
22778;SDS011;11556;51.194;3.800;2023-05-08T07:05:53;62.33;;;20.27;;
22778;SDS011;11556;51.194;3.800;2023-05-08T07:08:19;64.93;;;20.20;;
22778;SDS011;11556;51.194;3.800;2023-05-08T07:10:45;59.40;;;19.80;;
22778;SDS011;11556;51.194;3.800;2023-05-08T07:13:11;64.45;;;21.50;;
22778;SDS011;11556;51.194;3.800;2023-05-08T07:15:36;66.80;;;20.73;;
22778;SDS011;11556;51.194;3.800;2023-05-08T07:18:03;76.07;;;22.58;;
22778;SDS011;11556;51.194;3.800;2023-05-08T07:20:29;71.90;;;22.40;;
22778;SDS011;11556;51.194;3.800;2023-05-08T07:22:54;64.95;;;20.67;;
22778;SDS011;11556;51.194;3.800;2023-05-08T07:25:20;68.55;;;22.00;;
22778;SDS011;11556;51.194;3.800;2023-05-08T07:27:46;70.53;;;21.33;;
22778;SDS011;11556;51.194;3.800;2023-05-08T07:30:11;67.28;;;22.77;;
22778;SDS011;11556;51.194;3.800;2023-05-08T07:32:37;67.53;;;23.30;;
22778;SDS011;11556;51.194;3.800;2023-05-08T07:35:03;77.43;;;25.42;;
22778;SDS011;11556;51.194;3.800;2023-05-08T07:37:32;77.80;;;25.98;;
22778;SDS011;11556;51.194;3.800;2023-05-08T07:39:57;87.82;;;28.10;;
22778;SDS011;11556;51.194;3.800;2023-05-08T07:42:23;85.93;;;27.30;;
22778;SDS011;11556;51.194;3.800;2023-05-08T07:44:49;84.13;;;28.65;;
22778;SDS011;11556;51.194;3.800;2023-05-08T07:47:15;91.80;;;28.35;;
22778;SDS011;11556;51.194;3.800;2023-05-08T07:49:41;89.18;;;29.73;;
22778;SDS011;11556;51.194;3.800;2023-05-08T07:52:06;93.90;;;31.50;;
22778;SDS011;11556;51.194;3.800;2023-05-08T07:54:32;86.75;;;29.48;;
22778;SDS011;11556;51.194;3.800;2023-05-08T07:56:58;73.22;;;27.02;;
22778;SDS011;11556;51.194;3.800;2023-05-08T07:59:23;81.07;;;27.08;;
22778;SDS011;11556;51.194;3.800;2023-05-08T08:01:49;82.40;;;27.95;;
22778;SDS011;11556;51.194;3.800;2023-05-08T08:04:15;73.35;;;27.55;;
22778;SDS011;11556;51.194;3.800;2023-05-08T08:06:40;78.68;;;27.05;;
22778;SDS011;11556;51.194;3.800;2023-05-08T08:09:06;71.13;;;26.23;;
22778;SDS011;11556;51.194;3.800;2023-05-08T08:11:32;80.32;;;28.38;;
22778;SDS011;11556;51.194;3.800;2023-05-08T08:13:57;82.15;;;29.08;;
22778;SDS011;11556;51.194;3.800;2023-05-08T08:16:23;86.28;;;29.38;;
22778;SDS011;11556;51.194;3.800;2023-05-08T08:18:49;69.07;;;25.50;;
22778;SDS011;11556;51.194;3.800;2023-05-08T08:21:16;83.53;;;28.58;;
22778;SDS011;11556;51.194;3.800;2023-05-08T08:23:42;86.00;;;31.20;;
22778;SDS011;11556;51.194;3.800;2023-05-08T08:26:08;97.72;;;33.20;;
22778;SDS011;11556;51.194;3.800;2023-05-08T08:28:34;92.28;;;33.60;;
22778;SDS011;11556;51.194;3.800;2023-05-08T08:30:59;87.72;;;31.35;;
22778;SDS011;11556;51.194;3.800;2023-05-08T08:33:28;86.03;;;32.00;;
22778;SDS011;11556;51.194;3.800;2023-05-08T08:35:54;68.82;;;28.08;;
22778;SDS011;11556;51.194;3.800;2023-05-08T08:38:20;75.00;;;29.60;;
22778;SDS011;11556;51.194;3.800;2023-05-08T08:40:45;70.85;;;29.17;;
22778;SDS011;11556;51.194;3.800;2023-05-08T08:43:11;70.13;;;29.27;;
22778;SDS011;11556;51.194;3.800;2023-05-08T08:45:37;64.68;;;27.15;;
22778;SDS011;11556;51.194;3.800;2023-05-08T08:48:03;60.88;;;25.83;;
22778;SDS011;11556;51.194;3.800;2023-05-08T08:50:31;59.97;;;26.55;;
22778;SDS011;11556;51.194;3.800;2023-05-08T08:55:34;59.60;;;27.48;;
22778;SDS011;11556;51.194;3.800;2023-05-08T09:00:45;52.13;;;22.45;;
22778;SDS011;11556;51.194;3.800;2023-05-08T09:03:12;57.90;;;24.30;;
22778;SDS011;11556;51.194;3.800;2023-05-08T09:05:38;54.97;;;23.25;;
22778;SDS011;11556;51.194;3.800;2023-05-08T09:08:04;49.00;;;21.13;;
22778;SDS011;11556;51.194;3.800;2023-05-08T09:10:31;46.22;;;20.10;;
22778;SDS011;11556;51.194;3.800;2023-05-08T09:12:58;46.60;;;20.42;;
22778;SDS011;11556;51.194;3.800;2023-05-08T09:15:24;48.45;;;21.42;;
22778;SDS011;11556;51.194;3.800;2023-05-08T09:17:50;39.88;;;18.23;;
22778;SDS011;11556;51.194;3.800;2023-05-08T09:20:15;39.80;;;17.75;;
22778;SDS011;11556;51.194;3.800;2023-05-08T09:22:41;37.13;;;18.00;;
22778;SDS011;11556;51.194;3.800;2023-05-08T09:25:08;40.78;;;19.80;;
22778;SDS011;11556;51.194;3.800;2023-05-08T09:27:34;49.58;;;26.35;;
22778;SDS011;11556;51.194;3.800;2023-05-08T09:32:29;65.78;;;31.50;;
22778;SDS011;11556;51.194;3.800;2023-05-08T09:34:56;56.83;;;27.17;;
22778;SDS011;11556;51.194;3.800;2023-05-08T09:37:22;39.83;;;23.25;;
22778;SDS011;11556;51.194;3.800;2023-05-08T09:39:49;41.20;;;22.65;;
22778;SDS011;11556;51.194;3.800;2023-05-08T09:42:15;38.67;;;22.30;;
22778;SDS011;11556;51.194;3.800;2023-05-08T09:44:47;41.17;;;22.92;;
22778;SDS011;11556;51.194;3.800;2023-05-08T09:47:16;38.47;;;22.00;;
22778;SDS011;11556;51.194;3.800;2023-05-08T09:52:35;39.55;;;21.90;;
22778;SDS011;11556;51.194;3.800;2023-05-08T09:55:08;33.38;;;19.15;;
22778;SDS011;11556;51.194;3.800;2023-05-08T09:57:36;35.63;;;18.25;;
22778;SDS011;11556;51.194;3.800;2023-05-08T10:00:07;38.25;;;21.58;;
22778;SDS011;11556;51.194;3.800;2023-05-08T10:02:37;35.85;;;19.42;;
22778;SDS011;11556;51.194;3.800;2023-05-08T10:05:04;30.45;;;17.33;;
22778;SDS011;11556;51.194;3.800;2023-05-08T10:07:53;38.10;;;20.73;;
22778;SDS011;11556;51.194;3.800;2023-05-08T10:10:23;42.63;;;24.80;;
22778;SDS011;11556;51.194;3.800;2023-05-08T10:12:50;27.95;;;15.88;;
22778;SDS011;11556;51.194;3.800;2023-05-08T10:15:19;27.90;;;15.95;;
22778;SDS011;11556;51.194;3.800;2023-05-08T10:17:53;27.42;;;15.45;;
22778;SDS011;11556;51.194;3.800;2023-05-08T10:20:33;27.00;;;14.70;;
22778;SDS011;11556;51.194;3.800;2023-05-08T10:23:00;27.40;;;14.15;;
22778;SDS011;11556;51.194;3.800;2023-05-08T10:25:31;26.10;;;14.15;;
22778;SDS011;11556;51.194;3.800;2023-05-08T10:30:53;29.40;;;17.80;;
22778;SDS011;11556;51.194;3.800;2023-05-08T10:33:21;33.13;;;19.10;;
22778;SDS011;11556;51.194;3.800;2023-05-08T10:35:51;22.52;;;13.70;;
22778;SDS011;11556;51.194;3.800;2023-05-08T10:38:17;20.75;;;12.70;;
22778;SDS011;11556;51.194;3.800;2023-05-08T10:40:44;20.15;;;12.07;;
22778;SDS011;11556;51.194;3.800;2023-05-08T10:43:10;38.10;;;19.42;;
22778;SDS011;11556;51.194;3.800;2023-05-08T10:45:36;30.48;;;17.02;;
22778;SDS011;11556;51.194;3.800;2023-05-08T10:48:03;30.67;;;17.50;;
22778;SDS011;11556;51.194;3.800;2023-05-08T10:56:26;19.13;;;11.90;;
22778;SDS011;11556;51.194;3.800;2023-05-08T10:58:56;15.90;;;10.75;;
22778;SDS011;11556;51.194;3.800;2023-05-08T11:01:23;15.75;;;10.80;;
22778;SDS011;11556;51.194;3.800;2023-05-08T11:03:49;16.13;;;11.27;;
22778;SDS011;11556;51.194;3.800;2023-05-08T11:06:16;20.42;;;13.20;;
22778;SDS011;11556;51.194;3.800;2023-05-08T11:08:46;31.20;;;19.55;;
22778;SDS011;11556;51.194;3.800;2023-05-08T11:11:23;30.77;;;18.73;;
22778;SDS011;11556;51.194;3.800;2023-05-08T11:13:51;28.83;;;19.40;;
22778;SDS011;11556;51.194;3.800;2023-05-08T11:19:24;17.65;;;10.30;;
22778;SDS011;11556;51.194;3.800;2023-05-08T11:24:38;14.95;;;9.88;;
22778;SDS011;11556;51.194;3.800;2023-05-08T11:27:05;19.60;;;12.98;;
22778;SDS011;11556;51.194;3.800;2023-05-08T11:29:31;16.63;;;11.00;;
22778;SDS011;11556;51.194;3.800;2023-05-08T11:31:58;17.98;;;11.82;;
22778;SDS011;11556;51.194;3.800;2023-05-08T11:37:18;17.27;;;11.90;;
22778;SDS011;11556;51.194;3.800;2023-05-08T11:39:45;20.83;;;13.88;;
22778;SDS011;11556;51.194;3.800;2023-05-08T11:45:04;28.83;;;17.08;;
22778;SDS011;11556;51.194;3.800;2023-05-08T11:47:31;26.48;;;16.63;;
22778;SDS011;11556;51.194;3.800;2023-05-08T11:50:02;25.55;;;16.25;;
22778;SDS011;11556;51.194;3.800;2023-05-08T11:52:32;27.90;;;17.48;;
22778;SDS011;11556;51.194;3.800;2023-05-08T11:55:08;31.83;;;20.90;;
22778;SDS011;11556;51.194;3.800;2023-05-08T11:57:34;32.25;;;21.33;;
22778;SDS011;11556;51.194;3.800;2023-05-08T12:00:06;32.88;;;20.77;;
22778;SDS011;11556;51.194;3.800;2023-05-08T12:02:37;32.55;;;19.45;;
22778;SDS011;11556;51.194;3.800;2023-05-08T12:05:05;30.42;;;18.77;;
22778;SDS011;11556;51.194;3.800;2023-05-08T12:07:43;31.27;;;16.17;;
22778;SDS011;11556;51.194;3.800;2023-05-08T12:10:15;27.55;;;16.63;;
22778;SDS011;11556;51.194;3.800;2023-05-08T12:12:41;34.35;;;22.30;;
22778;SDS011;11556;51.194;3.800;2023-05-08T12:15:08;34.40;;;21.05;;
22778;SDS011;11556;51.194;3.800;2023-05-08T12:17:36;26.27;;;15.65;;
22778;SDS011;11556;51.194;3.800;2023-05-08T12:20:08;31.65;;;17.63;;
22778;SDS011;11556;51.194;3.800;2023-05-08T12:22:38;33.83;;;19.17;;
22778;SDS011;11556;51.194;3.800;2023-05-08T12:25:15;32.33;;;20.35;;
22778;SDS011;11556;51.194;3.800;2023-05-08T12:27:41;28.05;;;16.75;;
22778;SDS011;11556;51.194;3.800;2023-05-08T12:30:08;31.02;;;16.90;;
22778;SDS011;11556;51.194;3.800;2023-05-08T12:32:36;26.20;;;15.55;;
22778;SDS011;11556;51.194;3.800;2023-05-08T12:35:03;26.65;;;16.77;;
22778;SDS011;11556;51.194;3.800;2023-05-08T12:37:31;26.02;;;15.05;;
22778;SDS011;11556;51.194;3.800;2023-05-08T12:39:57;22.83;;;13.02;;
22778;SDS011;11556;51.194;3.800;2023-05-08T12:42:40;23.00;;;12.70;;
22778;SDS011;11556;51.194;3.800;2023-05-08T12:47:53;17.52;;;11.95;;
22778;SDS011;11556;51.194;3.800;2023-05-08T12:50:23;18.10;;;12.32;;
22778;SDS011;11556;51.194;3.800;2023-05-08T12:52:50;19.08;;;11.98;;
22778;SDS011;11556;51.194;3.800;2023-05-08T12:55:23;19.42;;;10.73;;
22778;SDS011;11556;51.194;3.800;2023-05-08T13:03:04;19.15;;;11.30;;
22778;SDS011;11556;51.194;3.800;2023-05-08T13:05:31;19.40;;;10.82;;
22778;SDS011;11556;51.194;3.800;2023-05-08T13:08:06;21.33;;;10.55;;
22778;SDS011;11556;51.194;3.800;2023-05-08T13:10:52;21.65;;;12.15;;
22778;SDS011;11556;51.194;3.800;2023-05-08T13:13:22;20.48;;;12.57;;
22778;SDS011;11556;51.194;3.800;2023-05-08T13:15:50;23.40;;;13.48;;
22778;SDS011;11556;51.194;3.800;2023-05-08T13:18:17;26.98;;;13.48;;
22778;SDS011;11556;51.194;3.800;2023-05-08T13:20:43;21.77;;;12.63;;
22778;SDS011;11556;51.194;3.800;2023-05-08T13:23:10;27.13;;;13.38;;
22778;SDS011;11556;51.194;3.800;2023-05-08T13:25:36;23.23;;;13.63;;
22778;SDS011;11556;51.194;3.800;2023-05-08T13:28:03;26.17;;;13.60;;
22778;SDS011;11556;51.194;3.800;2023-05-08T13:30:29;31.80;;;15.82;;
22778;SDS011;11556;51.194;3.800;2023-05-08T13:32:55;25.75;;;14.05;;
22778;SDS011;11556;51.194;3.800;2023-05-08T13:35:21;31.35;;;14.85;;
22778;SDS011;11556;51.194;3.800;2023-05-08T13:37:48;30.05;;;15.77;;
22778;SDS011;11556;51.194;3.800;2023-05-08T13:40:14;28.05;;;15.85;;
22778;SDS011;11556;51.194;3.800;2023-05-08T13:42:40;28.65;;;15.88;;
22778;SDS011;11556;51.194;3.800;2023-05-08T13:45:06;27.23;;;14.52;;
22778;SDS011;11556;51.194;3.800;2023-05-08T13:47:34;24.75;;;15.13;;
22778;SDS011;11556;51.194;3.800;2023-05-08T13:50:00;27.05;;;15.45;;
22778;SDS011;11556;51.194;3.800;2023-05-08T13:52:26;25.70;;;15.45;;
22778;SDS011;11556;51.194;3.800;2023-05-08T13:54:54;21.75;;;14.30;;
22778;SDS011;11556;51.194;3.800;2023-05-08T13:57:20;23.48;;;14.48;;
22778;SDS011;11556;51.194;3.800;2023-05-08T13:59:46;20.67;;;13.30;;
22778;SDS011;11556;51.194;3.800;2023-05-08T14:02:12;20.27;;;13.60;;
22778;SDS011;11556;51.194;3.800;2023-05-08T14:04:38;21.58;;;13.43;;
22778;SDS011;11556;51.194;3.800;2023-05-08T14:07:04;20.88;;;13.30;;
22778;SDS011;11556;51.194;3.800;2023-05-08T14:09:30;23.02;;;14.40;;
22778;SDS011;11556;51.194;3.800;2023-05-08T14:11:56;23.23;;;14.30;;
22778;SDS011;11556;51.194;3.800;2023-05-08T14:14:22;22.13;;;13.77;;
22778;SDS011;11556;51.194;3.800;2023-05-08T14:16:47;25.08;;;14.85;;
22778;SDS011;11556;51.194;3.800;2023-05-08T14:19:15;22.95;;;14.63;;
22778;SDS011;11556;51.194;3.800;2023-05-08T14:21:41;24.30;;;14.65;;
22778;SDS011;11556;51.194;3.800;2023-05-08T14:24:07;22.33;;;14.63;;
22778;SDS011;11556;51.194;3.800;2023-05-08T14:26:33;22.02;;;13.85;;
22778;SDS011;11556;51.194;3.800;2023-05-08T14:29:00;25.60;;;14.63;;
22778;SDS011;11556;51.194;3.800;2023-05-08T14:31:25;27.55;;;14.68;;
22778;SDS011;11556;51.194;3.800;2023-05-08T14:33:51;22.27;;;13.85;;
22778;SDS011;11556;51.194;3.800;2023-05-08T14:36:17;25.23;;;14.52;;
22778;SDS011;11556;51.194;3.800;2023-05-08T14:38:42;21.20;;;13.85;;
22778;SDS011;11556;51.194;3.800;2023-05-08T14:41:08;21.10;;;13.15;;
22778;SDS011;11556;51.194;3.800;2023-05-08T14:43:34;21.38;;;13.13;;
22778;SDS011;11556;51.194;3.800;2023-05-08T14:46:00;20.25;;;14.02;;
22778;SDS011;11556;51.194;3.800;2023-05-08T14:48:25;21.58;;;13.07;;
22778;SDS011;11556;51.194;3.800;2023-05-08T14:50:51;23.52;;;14.27;;
22778;SDS011;11556;51.194;3.800;2023-05-08T14:53:17;24.05;;;13.90;;
22778;SDS011;11556;51.194;3.800;2023-05-08T14:55:43;20.58;;;13.93;;
22778;SDS011;11556;51.194;3.800;2023-05-08T14:58:08;19.08;;;13.10;;
22778;SDS011;11556;51.194;3.800;2023-05-08T15:00:34;21.45;;;13.30;;
22778;SDS011;11556;51.194;3.800;2023-05-08T15:02:59;21.65;;;13.48;;
22778;SDS011;11556;51.194;3.800;2023-05-08T15:05:25;20.83;;;13.65;;
22778;SDS011;11556;51.194;3.800;2023-05-08T15:07:51;22.75;;;13.98;;
22778;SDS011;11556;51.194;3.800;2023-05-08T15:10:17;24.70;;;13.38;;
22778;SDS011;11556;51.194;3.800;2023-05-08T15:12:42;20.00;;;12.75;;
22778;SDS011;11556;51.194;3.800;2023-05-08T15:15:08;20.60;;;13.32;;
22778;SDS011;11556;51.194;3.800;2023-05-08T15:17:34;20.02;;;12.70;;
22778;SDS011;11556;51.194;3.800;2023-05-08T15:20:00;19.75;;;13.30;;
22778;SDS011;11556;51.194;3.800;2023-05-08T15:22:27;21.60;;;14.25;;
22778;SDS011;11556;51.194;3.800;2023-05-08T15:24:53;21.17;;;14.52;;
22778;SDS011;11556;51.194;3.800;2023-05-08T15:27:19;20.88;;;14.02;;
22778;SDS011;11556;51.194;3.800;2023-05-08T15:29:45;26.63;;;14.57;;
22778;SDS011;11556;51.194;3.800;2023-05-08T15:32:11;24.02;;;14.60;;
22778;SDS011;11556;51.194;3.800;2023-05-08T15:34:37;20.77;;;13.57;;
22778;SDS011;11556;51.194;3.800;2023-05-08T15:37:03;20.98;;;14.32;;
22778;SDS011;11556;51.194;3.800;2023-05-08T15:39:28;21.45;;;14.20;;